Mare Doricum — IBCQ — position and weather

sailwx.info

Track history (hours):
 
Tides and Currents Weather Stations Pressure Air Temp Water Temp Dewpoint Dewpoint Depression Visibility Wind Speed Wind Dir Waves Ship Positions

Mare Doricum

Last reported at 2018-May-14 08:55 UTC. Time now 2018-Jun-24 22:11 UTC.
Position N 28°12' W 016°09'.
Warning: this ship's position is 41 days out of date.

Length 274 m; draft 15.9 m.

Type: Tanker. MMSI: 247275900.

Date/timePositionNaut miles runAvg speedWind from/ knotsBaromVisibWave heightAir tempDewpointWater temp
2018-May-14 08:55N 28°12' W 016°09'612.6
2018-May-14 08:29N 28°16' W 016°05'613.0
2018-May-14 08:00N 28°21' W 016°01'713.0
2018-May-14 07:30N 28°26' W 015°56'612.8
2018-May-14 07:00N 28°31' W 015°51'612.6
2018-May-14 06:30N 28°36' W 015°47'712.5
2018-May-14 05:59N 28°41' W 015°43'612.7
2018-May-14 05:30N 28°47' W 015°39'712.6
2018-May-14 04:59N 28°52' W 015°36'712.8
2018-May-14 04:27N 28°58' W 015°32'713.0
2018-May-14 03:54N 29°04' W 015°28'1512.8
2018-May-14 02:43N 29°19' W 015°21'312.8
2018-May-14 02:30N 29°21' W 015°20'812.7
2018-May-14 01:54N 29°29' W 015°18'1212.6
2018-May-14 00:54N 29°41' W 015°14'1212.6
2018-May-13 23:55N 29°52' W 015°09'  
2018-May-09 08:32N 49°49' W 003°48'012.5
2018-May-09 08:30N 49°49' W 003°48'812.5
2018-May-09 07:51N 49°51' W 003°36'512.7
2018-May-09 07:27N 49°53' W 003°28'612.7
2018-May-09 07:00N 49°54' W 003°20'612.6
2018-May-09 06:30N 49°56' W 003°10'612.6
2018-May-09 06:00N 49°58' W 003°01'612.3
2018-May-09 05:30N 49°60' W 002°52'612.0
2018-May-09 05:00N 50°01' W 002°43'611.7
2018-May-09 04:29N 50°03' W 002°34'811.4
2018-May-09 03:47N 50°05' W 002°22'411.1
2018-May-09 03:26N 50°06' W 002°16'1010.7
2018-May-09 02:29N 50°09' W 002°01'2410.7
2018-May-09 00:15N 50°15' W 001°25'1712.2
2018-May-08 22:53N 50°20' W 000°60'2213.2
2018-May-08 21:13N 50°26' W 000°26'313.0
2018-May-08 20:58N 50°26' W 000°22'612.9
2018-May-08 20:30N 50°28' W 000°12'612.7
2018-May-08 20:00N 50°30' W 000°03'612.7
2018-May-08 19:30N 50°32' E 000°07'612.6
2018-May-08 19:00N 50°33' E 000°16'612.5
2018-May-08 18:30N 50°35' E 000°26'612.2
2018-May-08 18:01N 50°37' E 000°35'612.1
2018-May-08 17:30N 50°40' E 000°43'611.8
2018-May-08 17:00N 50°44' E 000°51'611.5
2018-May-08 16:30N 50°47' E 000°58'611.6
2018-May-08 16:00N 50°50' E 001°06'811.9
2018-May-08 15:22N 50°54' E 001°16'512.3
2018-May-08 14:57N 50°58' E 001°22'613.0
2018-May-08 14:30N 51°02' E 001°28'713.9
2018-May-08 14:00N 51°07' E 001°36'714.1
2018-May-08 13:30N 51°12' E 001°43'714.1
2018-May-08 13:00N 51°18' E 001°50'713.7
2018-May-08 12:30N 51°24' E 001°55'613.0
2018-May-08 12:00N 51°29' E 002°01'713.0
2018-May-08 11:30N 51°34' E 002°08'612.7
2018-May-08 11:00N 51°39' E 002°15'612.5
2018-May-08 10:30N 51°44' E 002°21'612.1
2018-May-08 10:00N 51°48' E 002°27'611.7
2018-May-08 09:29N 51°54' E 002°32'611.5
2018-May-08 09:00N 51°59' E 002°35'611.3
2018-May-08 08:28N 52°05' E 002°38'1011.1
2018-May-08 07:37N 52°13' E 002°44'211.2
2018-May-08 07:26N 52°15' E 002°46'511.3
2018-May-08 06:58N 52°20' E 002°49'611.5
2018-May-08 06:28N 52°25' E 002°53'711.8
2018-May-08 05:53N 52°32' E 002°57'1812.4
2018-May-08 04:28N 52°48' E 003°09'31411.7
2018-May-07 01:39N 58°01' E 003°56'312.6
2018-May-07 01:23N 58°04' E 003°56'512.7
2018-May-07 01:00N 58°09' E 003°57'712.6
2018-May-07 00:28N 58°16' E 003°57'612.5
2018-May-07 00:00N 58°21' E 003°57'611.9
2018-May-06 23:30N 58°27' E 003°58'611.5
2018-May-06 22:57N 58°34' E 003°58'511.4
2018-May-06 22:30N 58°39' E 003°58'811.6
2018-May-06 21:46N 58°47' E 003°59'511.7
2018-May-06 21:23N 58°52' E 003°59'411.5
2018-May-06 21:00N 58°56' E 003°59'811.7
2018-May-06 20:18N 59°04' E 004°00'511.7
2018-May-06 19:55N 59°09' E 004°01'6611.5
2018-May-06 14:11N 60°13' E 004°29'210.9
2018-May-06 14:00N 60°15' E 004°30'611.0
2018-May-06 13:30N 60°20' E 004°35'510.5
2018-May-06 13:00N 60°25' E 004°39'4 7.9
2018-May-06 12:29N 60°29' E 004°40'510.3
2018-May-06 12:00N 60°33' E 004°37'611.4
2018-May-06 11:30N 60°39' E 004°34'611.3
2018-May-06 10:59N 60°45' E 004°31'5 9.6
2018-May-06 10:30N 60°49' E 004°30'5 9.6
2018-May-06 10:00N 60°51' E 004°39'510.0
2018-May-06 09:30N 60°51' E 004°49'5 9.7
2018-May-06 09:00N 60°50' E 004°59'2 3.7
2018-May-06 08:30N 60°49' E 005°02'0 0.0
2018-May-06 08:00N 60°49' E 005°02'0 0.0
2018-May-06 07:30N 60°49' E 005°02'0 0.0
2018-May-06 07:00N 60°49' E 005°02'0 0.0
2018-May-06 06:30N 60°49' E 005°02'0 0.0
2018-May-06 05:57N 60°49' E 005°02'0 0.0
2018-May-06 05:30N 60°49' E 005°02'0 0.0
2018-May-06 05:00N 60°49' E 005°02'0 0.0
2018-May-06 04:30N 60°49' E 005°02'0 0.0
2018-May-06 04:00N 60°49' E 005°02'0 0.0
2018-May-06 03:30N 60°49' E 005°02'0 0.0
2018-May-06 03:00N 60°49' E 005°02'0 0.0
2018-May-06 02:30N 60°49' E 005°02'0 0.0
2018-May-06 02:00N 60°49' E 005°02'0 0.0
2018-May-06 01:30N 60°49' E 005°02'0 0.0
2018-May-06 01:00N 60°49' E 005°02'0 0.0
2018-May-06 00:30N 60°49' E 005°02'0 0.0
2018-May-06 00:00N 60°49' E 005°02'0 0.0
2018-May-05 23:30N 60°49' E 005°02'0 0.0
2018-May-05 23:00N 60°49' E 005°02'0 0.0
2018-May-05 22:30N 60°49' E 005°02'0 0.0
2018-May-05 22:00N 60°49' E 005°02'0 0.0
2018-May-05 21:30N 60°49' E 005°02'0 0.0
2018-May-05 21:00N 60°49' E 005°02'0 0.0
2018-May-05 20:30N 60°49' E 005°02'0 0.0
2018-May-05 20:00N 60°49' E 005°02'0 0.0
2018-May-05 19:30N 60°49' E 005°02'0 0.0
2018-May-05 19:00N 60°49' E 005°02'0 0.0
2018-May-05 18:30N 60°49' E 005°02'0 0.0
2018-May-05 18:00N 60°49' E 005°02'0 0.0
2018-May-05 17:30N 60°49' E 005°02'0 0.0
2018-May-05 17:00N 60°49' E 005°02'0 0.0
2018-May-05 16:30N 60°49' E 005°02'0 0.0
2018-May-05 16:00N 60°49' E 005°02'0 0.0
2018-May-05 15:27N 60°49' E 005°02'0 0.0
2018-May-05 15:00N 60°49' E 005°02'0 0.0
2018-May-05 14:30N 60°49' E 005°02'0 0.0
2018-May-05 14:00N 60°49' E 005°02'0 0.0
2018-May-05 13:30N 60°49' E 005°02'0 0.0
2018-May-05 13:00N 60°49' E 005°02'0 0.0
2018-May-05 12:30N 60°49' E 005°02'0 0.0
2018-May-05 12:00N 60°49' E 005°02'0 0.0
2018-May-05 11:30N 60°49' E 005°02'0 0.0
2018-May-05 11:00N 60°49' E 005°02'0 0.0
2018-May-05 10:30N 60°49' E 005°02'0 0.0
2018-May-05 10:00N 60°49' E 005°02'0 0.0
2018-May-05 09:30N 60°49' E 005°02'0 0.0
2018-May-05 09:01N 60°49' E 005°02'0 0.0
2018-May-05 08:30N 60°49' E 005°02'0 0.0
2018-May-05 08:00N 60°49' E 005°02'0 0.0
2018-May-05 07:30N 60°49' E 005°02'0 0.0
2018-May-05 07:00N 60°49' E 005°02'0 0.0
2018-May-05 06:30N 60°49' E 005°02'0 0.0
2018-May-05 06:00N 60°49' E 005°02'0 0.0
2018-May-05 05:30N 60°49' E 005°02'0 0.0
2018-May-05 05:00N 60°49' E 005°02'0 0.0
2018-May-05 04:30N 60°49' E 005°02'0 0.0
2018-May-05 04:00N 60°49' E 005°02'0 0.0
2018-May-05 03:30N 60°49' E 005°02'0 0.0
2018-May-05 03:00N 60°49' E 005°02'0 0.0
2018-May-05 02:30N 60°49' E 005°02'0 0.0
2018-May-05 02:00N 60°49' E 005°02'0 0.0
2018-May-05 01:30N 60°49' E 005°02'0 0.0
2018-May-05 01:00N 60°49' E 005°02'0 0.0
2018-May-05 00:30N 60°49' E 005°02'0 0.0
2018-May-05 00:00N 60°49' E 005°02'0 0.0
2018-May-04 23:30N 60°49' E 005°02'0 0.0
2018-May-04 23:00N 60°49' E 005°02'0 0.0
2018-May-04 22:30N 60°49' E 005°02'0 0.0
2018-May-04 22:00N 60°49' E 005°02'0 0.0
2018-May-04 21:30N 60°49' E 005°02'0 0.0
2018-May-04 21:00N 60°49' E 005°02'0 0.1
2018-May-04 20:30N 60°49' E 005°02'1 1.6
2018-May-04 20:00N 60°49' E 005°04'4 8.3
2018-May-04 19:30N 60°51' E 004°55'510.6
2018-May-04 19:00N 60°51' E 004°45'510.5
2018-May-04 18:30N 60°51' E 004°34'4 8.1
2018-May-04 17:59N 60°50' E 004°25'1 1.8
2018-May-04 17:30N 60°50' E 004°24'4 8.8
2018-May-04 17:00N 60°46' E 004°19'  
Track history (hours):
 
Tides and Currents Weather Stations Pressure Air Temp Water Temp Dewpoint Dewpoint Depression Visibility Wind Speed Wind Dir Waves Ship Positions

Mare Doricum

Last reported at 2018-May-14 08:55 UTC. Time now 2018-Jun-24 22:11 UTC.
Position N 28°12' W 016°09'.
Warning: this ship's position is 41 days out of date.

Length 274 m; draft 15.9 m.

Type: Tanker. MMSI: 247275900.

Date/timePositionNaut miles runAvg speedWind from/ knotsBaromVisibWave heightAir tempDewpointWater temp
2018-May-14 08:55N 28°12' W 016°09'612.6
2018-May-14 08:29N 28°16' W 016°05'613.0
2018-May-14 08:00N 28°21' W 016°01'713.0
2018-May-14 07:30N 28°26' W 015°56'612.8
2018-May-14 07:00N 28°31' W 015°51'612.6
2018-May-14 06:30N 28°36' W 015°47'712.5
2018-May-14 05:59N 28°41' W 015°43'612.7
2018-May-14 05:30N 28°47' W 015°39'712.6
2018-May-14 04:59N 28°52' W 015°36'712.8
2018-May-14 04:27N 28°58' W 015°32'713.0
2018-May-14 03:54N 29°04' W 015°28'1512.8
2018-May-14 02:43N 29°19' W 015°21'312.8
2018-May-14 02:30N 29°21' W 015°20'812.7
2018-May-14 01:54N 29°29' W 015°18'1212.6
2018-May-14 00:54N 29°41' W 015°14'1212.6
2018-May-13 23:55N 29°52' W 015°09'  
2018-May-09 08:32N 49°49' W 003°48'012.5
2018-May-09 08:30N 49°49' W 003°48'812.5
2018-May-09 07:51N 49°51' W 003°36'512.7
2018-May-09 07:27N 49°53' W 003°28'612.7
2018-May-09 07:00N 49°54' W 003°20'612.6
2018-May-09 06:30N 49°56' W 003°10'612.6
2018-May-09 06:00N 49°58' W 003°01'612.3
2018-May-09 05:30N 49°60' W 002°52'612.0
2018-May-09 05:00N 50°01' W 002°43'611.7
2018-May-09 04:29N 50°03' W 002°34'811.4
2018-May-09 03:47N 50°05' W 002°22'411.1
2018-May-09 03:26N 50°06' W 002°16'1010.7
2018-May-09 02:29N 50°09' W 002°01'2410.7
2018-May-09 00:15N 50°15' W 001°25'1712.2
2018-May-08 22:53N 50°20' W 000°60'2213.2
2018-May-08 21:13N 50°26' W 000°26'313.0
2018-May-08 20:58N 50°26' W 000°22'612.9
2018-May-08 20:30N 50°28' W 000°12'612.7
2018-May-08 20:00N 50°30' W 000°03'612.7
2018-May-08 19:30N 50°32' E 000°07'612.6
2018-May-08 19:00N 50°33' E 000°16'612.5
2018-May-08 18:30N 50°35' E 000°26'612.2
2018-May-08 18:01N 50°37' E 000°35'612.1
2018-May-08 17:30N 50°40' E 000°43'611.8
2018-May-08 17:00N 50°44' E 000°51'611.5
2018-May-08 16:30N 50°47' E 000°58'611.6
2018-May-08 16:00N 50°50' E 001°06'811.9
2018-May-08 15:22N 50°54' E 001°16'512.3
2018-May-08 14:57N 50°58' E 001°22'613.0
2018-May-08 14:30N 51°02' E 001°28'713.9
2018-May-08 14:00N 51°07' E 001°36'714.1
2018-May-08 13:30N 51°12' E 001°43'714.1
2018-May-08 13:00N 51°18' E 001°50'713.7
2018-May-08 12:30N 51°24' E 001°55'613.0
2018-May-08 12:00N 51°29' E 002°01'713.0
2018-May-08 11:30N 51°34' E 002°08'612.7
2018-May-08 11:00N 51°39' E 002°15'612.5
2018-May-08 10:30N 51°44' E 002°21'612.1
2018-May-08 10:00N 51°48' E 002°27'611.7
2018-May-08 09:29N 51°54' E 002°32'611.5
2018-May-08 09:00N 51°59' E 002°35'611.3
2018-May-08 08:28N 52°05' E 002°38'1011.1
2018-May-08 07:37N 52°13' E 002°44'211.2
2018-May-08 07:26N 52°15' E 002°46'511.3
2018-May-08 06:58N 52°20' E 002°49'611.5
2018-May-08 06:28N 52°25' E 002°53'711.8
2018-May-08 05:53N 52°32' E 002°57'1812.4
2018-May-08 04:28N 52°48' E 003°09'31411.7
2018-May-07 01:39N 58°01' E 003°56'312.6
2018-May-07 01:23N 58°04' E 003°56'512.7
2018-May-07 01:00N 58°09' E 003°57'712.6
2018-May-07 00:28N 58°16' E 003°57'612.5
2018-May-07 00:00N 58°21' E 003°57'611.9
2018-May-06 23:30N 58°27' E 003°58'611.5
2018-May-06 22:57N 58°34' E 003°58'511.4
2018-May-06 22:30N 58°39' E 003°58'811.6
2018-May-06 21:46N 58°47' E 003°59'511.7
2018-May-06 21:23N 58°52' E 003°59'411.5
2018-May-06 21:00N 58°56' E 003°59'811.7
2018-May-06 20:18N 59°04' E 004°00'511.7
2018-May-06 19:55N 59°09' E 004°01'6611.5
2018-May-06 14:11N 60°13' E 004°29'210.9
2018-May-06 14:00N 60°15' E 004°30'611.0
2018-May-06 13:30N 60°20' E 004°35'510.5
2018-May-06 13:00N 60°25' E 004°39'4 7.9
2018-May-06 12:29N 60°29' E 004°40'510.3
2018-May-06 12:00N 60°33' E 004°37'611.4
2018-May-06 11:30N 60°39' E 004°34'611.3
2018-May-06 10:59N 60°45' E 004°31'5 9.6
2018-May-06 10:30N 60°49' E 004°30'5 9.6
2018-May-06 10:00N 60°51' E 004°39'510.0
2018-May-06 09:30N 60°51' E 004°49'5 9.7
2018-May-06 09:00N 60°50' E 004°59'2 3.7
2018-May-06 08:30N 60°49' E 005°02'0 0.0
2018-May-06 08:00N 60°49' E 005°02'0 0.0
2018-May-06 07:30N 60°49' E 005°02'0 0.0
2018-May-06 07:00N 60°49' E 005°02'0 0.0
2018-May-06 06:30N 60°49' E 005°02'0 0.0
2018-May-06 05:57N 60°49' E 005°02'0 0.0
2018-May-06 05:30N 60°49' E 005°02'0 0.0
2018-May-06 05:00N 60°49' E 005°02'0 0.0
2018-May-06 04:30N 60°49' E 005°02'0 0.0
2018-May-06 04:00N 60°49' E 005°02'0 0.0
2018-May-06 03:30N 60°49' E 005°02'0 0.0
2018-May-06 03:00N 60°49' E 005°02'0 0.0
2018-May-06 02:30N 60°49' E 005°02'0 0.0
2018-May-06 02:00N 60°49' E 005°02'0 0.0
2018-May-06 01:30N 60°49' E 005°02'0 0.0
2018-May-06 01:00N 60°49' E 005°02'0 0.0
2018-May-06 00:30N 60°49' E 005°02'0 0.0
2018-May-06 00:00N 60°49' E 005°02'0 0.0
2018-May-05 23:30N 60°49' E 005°02'0 0.0
2018-May-05 23:00N 60°49' E 005°02'0 0.0
2018-May-05 22:30N 60°49' E 005°02'0 0.0
2018-May-05 22:00N 60°49' E 005°02'0 0.0
2018-May-05 21:30N 60°49' E 005°02'0 0.0
2018-May-05 21:00N 60°49' E 005°02'0 0.0
2018-May-05 20:30N 60°49' E 005°02'0 0.0
2018-May-05 20:00N 60°49' E 005°02'0 0.0
2018-May-05 19:30N 60°49' E 005°02'0 0.0
2018-May-05 19:00N 60°49' E 005°02'0 0.0
2018-May-05 18:30N 60°49' E 005°02'0 0.0
2018-May-05 18:00N 60°49' E 005°02'0 0.0
2018-May-05 17:30N 60°49' E 005°02'0 0.0
2018-May-05 17:00N 60°49' E 005°02'0 0.0
2018-May-05 16:30N 60°49' E 005°02'0 0.0
2018-May-05 16:00N 60°49' E 005°02'0 0.0
2018-May-05 15:27N 60°49' E 005°02'0 0.0
2018-May-05 15:00N 60°49' E 005°02'0 0.0
2018-May-05 14:30N 60°49' E 005°02'0 0.0
2018-May-05 14:00N 60°49' E 005°02'0 0.0
2018-May-05 13:30N 60°49' E 005°02'0 0.0
2018-May-05 13:00N 60°49' E 005°02'0 0.0
2018-May-05 12:30N 60°49' E 005°02'0 0.0
2018-May-05 12:00N 60°49' E 005°02'0 0.0
2018-May-05 11:30N 60°49' E 005°02'0 0.0
2018-May-05 11:00N 60°49' E 005°02'0 0.0
2018-May-05 10:30N 60°49' E 005°02'0 0.0
2018-May-05 10:00N 60°49' E 005°02'0 0.0
2018-May-05 09:30N 60°49' E 005°02'0 0.0
2018-May-05 09:01N 60°49' E 005°02'0 0.0
2018-May-05 08:30N 60°49' E 005°02'0 0.0
2018-May-05 08:00N 60°49' E 005°02'0 0.0
2018-May-05 07:30N 60°49' E 005°02'0 0.0
2018-May-05 07:00N 60°49' E 005°02'0 0.0
2018-May-05 06:30N 60°49' E 005°02'0 0.0
2018-May-05 06:00N 60°49' E 005°02'0 0.0
2018-May-05 05:30N 60°49' E 005°02'0 0.0
2018-May-05 05:00N 60°49' E 005°02'0 0.0
2018-May-05 04:30N 60°49' E 005°02'0 0.0
2018-May-05 04:00N 60°49' E 005°02'0 0.0
2018-May-05 03:30N 60°49' E 005°02'0 0.0
2018-May-05 03:00N 60°49' E 005°02'0 0.0
2018-May-05 02:30N 60°49' E 005°02'0 0.0
2018-May-05 02:00N 60°49' E 005°02'0 0.0
2018-May-05 01:30N 60°49' E 005°02'0 0.0
2018-May-05 01:00N 60°49' E 005°02'0 0.0
2018-May-05 00:30N 60°49' E 005°02'0 0.0
2018-May-05 00:00N 60°49' E 005°02'0 0.0
2018-May-04 23:30N 60°49' E 005°02'0 0.0
2018-May-04 23:00N 60°49' E 005°02'0 0.0
2018-May-04 22:30N 60°49' E 005°02'0 0.0
2018-May-04 22:00N 60°49' E 005°02'0 0.0
2018-May-04 21:30N 60°49' E 005°02'0 0.0
2018-May-04 21:00N 60°49' E 005°02'0 0.1
2018-May-04 20:30N 60°49' E 005°02'1 1.6
2018-May-04 20:00N 60°49' E 005°04'4 8.3
2018-May-04 19:30N 60°51' E 004°55'510.6
2018-May-04 19:00N 60°51' E 004°45'510.5
2018-May-04 18:30N 60°51' E 004°34'4 8.1
2018-May-04 17:59N 60°50' E 004°25'1 1.8
2018-May-04 17:30N 60°50' E 004°24'4 8.8
2018-May-04 17:00N 60°46' E 004°19'  

Dump ship's entire track history